sensor_id;sensor_type;location;lat;lon;timestamp;temperature;humidity
19906;DHT22;10115;50.906;4.438;2023-03-14T00:01:20;11.10;99.90
19906;DHT22;10115;50.906;4.438;2023-03-14T00:03:46;11.10;99.90
19906;DHT22;10115;50.906;4.438;2023-03-14T00:06:13;11.00;99.90
19906;DHT22;10115;50.906;4.438;2023-03-14T00:08:40;11.00;99.90
19906;DHT22;10115;50.906;4.438;2023-03-14T00:11:14;10.90;99.90
19906;DHT22;10115;50.906;4.438;2023-03-14T00:13:41;10.90;99.90
19906;DHT22;10115;50.906;4.438;2023-03-14T00:16:12;10.90;99.90
19906;DHT22;10115;50.906;4.438;2023-03-14T00:18:38;10.90;99.90
19906;DHT22;10115;50.906;4.438;2023-03-14T00:21:06;10.90;99.90
19906;DHT22;10115;50.906;4.438;2023-03-14T00:23:34;10.90;99.90
19906;DHT22;10115;50.906;4.438;2023-03-14T00:26:08;10.90;99.90
19906;DHT22;10115;50.906;4.438;2023-03-14T00:28:35;10.90;99.90
19906;DHT22;10115;50.906;4.438;2023-03-14T00:31:05;10.90;99.90
19906;DHT22;10115;50.906;4.438;2023-03-14T00:33:31;10.90;99.90
19906;DHT22;10115;50.906;4.438;2023-03-14T00:36:02;10.90;99.90
19906;DHT22;10115;50.906;4.438;2023-03-14T00:38:29;10.90;99.90
19906;DHT22;10115;50.906;4.438;2023-03-14T00:40:55;10.80;99.90
19906;DHT22;10115;50.906;4.438;2023-03-14T00:43:21;10.80;99.90
19906;DHT22;10115;50.906;4.438;2023-03-14T00:45:51;10.80;99.90
19906;DHT22;10115;50.906;4.438;2023-03-14T00:48:18;10.80;99.90
19906;DHT22;10115;50.906;4.438;2023-03-14T00:50:45;10.70;99.90
19906;DHT22;10115;50.906;4.438;2023-03-14T00:53:11;10.70;99.90
19906;DHT22;10115;50.906;4.438;2023-03-14T00:55:39;10.70;99.90
19906;DHT22;10115;50.906;4.438;2023-03-14T00:58:05;10.70;99.90
19906;DHT22;10115;50.906;4.438;2023-03-14T01:00:31;10.70;99.90
19906;DHT22;10115;50.906;4.438;2023-03-14T01:02:57;10.80;99.90
19906;DHT22;10115;50.906;4.438;2023-03-14T01:05:23;10.80;99.90
19906;DHT22;10115;50.906;4.438;2023-03-14T01:07:49;10.80;99.90
19906;DHT22;10115;50.906;4.438;2023-03-14T01:10:15;10.80;99.90
19906;DHT22;10115;50.906;4.438;2023-03-14T01:12:41;10.70;99.90
19906;DHT22;10115;50.906;4.438;2023-03-14T01:15:07;10.70;99.90
19906;DHT22;10115;50.906;4.438;2023-03-14T01:17:33;10.70;99.90
19906;DHT22;10115;50.906;4.438;2023-03-14T01:19:59;10.70;99.90
19906;DHT22;10115;50.906;4.438;2023-03-14T01:22:26;10.70;99.90
19906;DHT22;10115;50.906;4.438;2023-03-14T01:24:52;10.70;99.90
19906;DHT22;10115;50.906;4.438;2023-03-14T01:27:17;10.70;99.90
19906;DHT22;10115;50.906;4.438;2023-03-14T01:29:43;10.70;99.90
19906;DHT22;10115;50.906;4.438;2023-03-14T01:32:09;10.60;99.90
19906;DHT22;10115;50.906;4.438;2023-03-14T01:34:35;10.60;99.90
19906;DHT22;10115;50.906;4.438;2023-03-14T01:37:00;10.60;99.90
19906;DHT22;10115;50.906;4.438;2023-03-14T01:39:26;10.60;99.90
19906;DHT22;10115;50.906;4.438;2023-03-14T01:41:53;10.60;99.90
19906;DHT22;10115;50.906;4.438;2023-03-14T01:44:19;10.50;99.90
19906;DHT22;10115;50.906;4.438;2023-03-14T01:46:46;10.50;99.90
19906;DHT22;10115;50.906;4.438;2023-03-14T01:49:22;10.50;99.90
19906;DHT22;10115;50.906;4.438;2023-03-14T01:52:06;10.40;99.90
19906;DHT22;10115;50.906;4.438;2023-03-14T01:54:41;10.40;99.90
19906;DHT22;10115;50.906;4.438;2023-03-14T01:57:17;10.50;99.90
19906;DHT22;10115;50.906;4.438;2023-03-14T02:02:22;10.40;99.90
19906;DHT22;10115;50.906;4.438;2023-03-14T02:04:48;10.40;99.90
19906;DHT22;10115;50.906;4.438;2023-03-14T02:07:22;10.40;99.90
19906;DHT22;10115;50.906;4.438;2023-03-14T02:09:51;10.40;99.90
19906;DHT22;10115;50.906;4.438;2023-03-14T02:12:18;10.40;99.90
19906;DHT22;10115;50.906;4.438;2023-03-14T02:14:45;10.30;99.90
19906;DHT22;10115;50.906;4.438;2023-03-14T02:17:16;10.30;99.90
19906;DHT22;10115;50.906;4.438;2023-03-14T02:22:25;10.10;99.90
19906;DHT22;10115;50.906;4.438;2023-03-14T02:24:57;10.00;99.90
19906;DHT22;10115;50.906;4.438;2023-03-14T02:27:24;9.90;99.90
19906;DHT22;10115;50.906;4.438;2023-03-14T02:30:00;9.80;99.90
19906;DHT22;10115;50.906;4.438;2023-03-14T02:32:33;9.70;99.90
19906;DHT22;10115;50.906;4.438;2023-03-14T02:35:04;9.70;99.90
19906;DHT22;10115;50.906;4.438;2023-03-14T02:37:39;9.70;99.90
19906;DHT22;10115;50.906;4.438;2023-03-14T02:40:07;9.50;99.90
19906;DHT22;10115;50.906;4.438;2023-03-14T02:42:33;9.50;99.90
19906;DHT22;10115;50.906;4.438;2023-03-14T02:47:33;9.50;99.90
19906;DHT22;10115;50.906;4.438;2023-03-14T02:50:04;9.50;99.90
19906;DHT22;10115;50.906;4.438;2023-03-14T02:52:31;9.60;99.90
19906;DHT22;10115;50.906;4.438;2023-03-14T02:54:57;9.50;99.90
19906;DHT22;10115;50.906;4.438;2023-03-14T02:57:23;9.50;99.90
19906;DHT22;10115;50.906;4.438;2023-03-14T02:59:48;9.50;99.90
19906;DHT22;10115;50.906;4.438;2023-03-14T03:02:14;9.50;99.90
19906;DHT22;10115;50.906;4.438;2023-03-14T03:04:40;9.60;99.90
19906;DHT22;10115;50.906;4.438;2023-03-14T03:07:06;9.60;99.90
19906;DHT22;10115;50.906;4.438;2023-03-14T03:09:31;9.70;99.90
19906;DHT22;10115;50.906;4.438;2023-03-14T03:11:57;9.70;99.90
19906;DHT22;10115;50.906;4.438;2023-03-14T03:14:23;9.70;99.90
19906;DHT22;10115;50.906;4.438;2023-03-14T03:16:48;9.80;99.90
19906;DHT22;10115;50.906;4.438;2023-03-14T03:19:14;9.80;99.90
19906;DHT22;10115;50.906;4.438;2023-03-14T03:21:41;9.80;99.90
19906;DHT22;10115;50.906;4.438;2023-03-14T03:24:07;9.90;99.90
19906;DHT22;10115;50.906;4.438;2023-03-14T03:26:34;9.90;99.90
19906;DHT22;10115;50.906;4.438;2023-03-14T03:29:00;9.90;99.90
19906;DHT22;10115;50.906;4.438;2023-03-14T03:31:26;10.00;99.90
19906;DHT22;10115;50.906;4.438;2023-03-14T03:33:51;10.10;99.90
19906;DHT22;10115;50.906;4.438;2023-03-14T03:36:21;10.10;99.90
19906;DHT22;10115;50.906;4.438;2023-03-14T03:38:48;9.90;99.90
19906;DHT22;10115;50.906;4.438;2023-03-14T03:41:14;9.90;99.90
19906;DHT22;10115;50.906;4.438;2023-03-14T03:43:39;10.00;99.90
19906;DHT22;10115;50.906;4.438;2023-03-14T03:46:06;9.90;99.90
19906;DHT22;10115;50.906;4.438;2023-03-14T03:48:32;10.00;99.90
19906;DHT22;10115;50.906;4.438;2023-03-14T03:50:58;10.10;99.90
19906;DHT22;10115;50.906;4.438;2023-03-14T03:53:24;10.10;99.90
19906;DHT22;10115;50.906;4.438;2023-03-14T03:55:50;10.00;99.90
19906;DHT22;10115;50.906;4.438;2023-03-14T03:58:15;10.00;99.90
19906;DHT22;10115;50.906;4.438;2023-03-14T04:00:41;10.00;99.90
19906;DHT22;10115;50.906;4.438;2023-03-14T04:03:07;10.00;99.90
19906;DHT22;10115;50.906;4.438;2023-03-14T04:05:33;10.00;99.90
19906;DHT22;10115;50.906;4.438;2023-03-14T04:08:00;10.00;99.90
19906;DHT22;10115;50.906;4.438;2023-03-14T04:10:26;9.90;99.90
19906;DHT22;10115;50.906;4.438;2023-03-14T04:12:52;10.10;99.90
19906;DHT22;10115;50.906;4.438;2023-03-14T04:15:18;10.00;99.90
19906;DHT22;10115;50.906;4.438;2023-03-14T04:17:43;10.00;99.90
19906;DHT22;10115;50.906;4.438;2023-03-14T04:20:09;10.10;99.90
19906;DHT22;10115;50.906;4.438;2023-03-14T04:22:38;10.00;99.90
19906;DHT22;10115;50.906;4.438;2023-03-14T04:25:05;10.10;99.90
19906;DHT22;10115;50.906;4.438;2023-03-14T04:27:31;10.10;99.90
19906;DHT22;10115;50.906;4.438;2023-03-14T04:29:56;10.10;99.90
19906;DHT22;10115;50.906;4.438;2023-03-14T04:32:22;10.10;99.90
19906;DHT22;10115;50.906;4.438;2023-03-14T04:34:48;10.10;99.90
19906;DHT22;10115;50.906;4.438;2023-03-14T04:37:14;10.10;99.90
19906;DHT22;10115;50.906;4.438;2023-03-14T04:39:39;10.10;99.90
19906;DHT22;10115;50.906;4.438;2023-03-14T04:42:05;10.10;99.90
19906;DHT22;10115;50.906;4.438;2023-03-14T04:44:31;10.10;99.90
19906;DHT22;10115;50.906;4.438;2023-03-14T04:46:57;10.10;99.90
19906;DHT22;10115;50.906;4.438;2023-03-14T04:49:22;10.10;99.90
19906;DHT22;10115;50.906;4.438;2023-03-14T04:51:48;10.10;99.90
19906;DHT22;10115;50.906;4.438;2023-03-14T04:54:16;10.20;99.90
19906;DHT22;10115;50.906;4.438;2023-03-14T04:56:42;10.10;99.90
19906;DHT22;10115;50.906;4.438;2023-03-14T04:59:08;10.10;99.90
19906;DHT22;10115;50.906;4.438;2023-03-14T05:01:34;10.10;99.90
19906;DHT22;10115;50.906;4.438;2023-03-14T05:04:00;10.10;99.90
19906;DHT22;10115;50.906;4.438;2023-03-14T05:06:26;10.10;99.90
19906;DHT22;10115;50.906;4.438;2023-03-14T05:08:51;10.10;99.90
19906;DHT22;10115;50.906;4.438;2023-03-14T05:11:17;10.10;99.90
19906;DHT22;10115;50.906;4.438;2023-03-14T05:13:44;10.00;99.90
19906;DHT22;10115;50.906;4.438;2023-03-14T05:16:11;10.10;99.90
19906;DHT22;10115;50.906;4.438;2023-03-14T05:18:37;10.00;99.90
19906;DHT22;10115;50.906;4.438;2023-03-14T05:21:03;10.00;99.90
19906;DHT22;10115;50.906;4.438;2023-03-14T05:23:29;10.00;99.90
19906;DHT22;10115;50.906;4.438;2023-03-14T05:25:55;10.00;99.90
19906;DHT22;10115;50.906;4.438;2023-03-14T05:28:21;9.90;99.90
19906;DHT22;10115;50.906;4.438;2023-03-14T05:30:47;10.00;99.90
19906;DHT22;10115;50.906;4.438;2023-03-14T05:33:12;10.00;99.90
19906;DHT22;10115;50.906;4.438;2023-03-14T05:35:38;10.00;99.90
19906;DHT22;10115;50.906;4.438;2023-03-14T05:38:04;10.00;99.90
19906;DHT22;10115;50.906;4.438;2023-03-14T05:40:29;10.00;99.90
19906;DHT22;10115;50.906;4.438;2023-03-14T05:42:55;10.00;99.90
19906;DHT22;10115;50.906;4.438;2023-03-14T05:45:21;10.00;99.90
19906;DHT22;10115;50.906;4.438;2023-03-14T05:47:46;9.90;99.90
19906;DHT22;10115;50.906;4.438;2023-03-14T05:50:12;9.90;99.90
19906;DHT22;10115;50.906;4.438;2023-03-14T05:52:38;9.90;99.90
19906;DHT22;10115;50.906;4.438;2023-03-14T05:55:04;9.90;99.90
19906;DHT22;10115;50.906;4.438;2023-03-14T05:57:30;9.90;99.90
19906;DHT22;10115;50.906;4.438;2023-03-14T05:59:56;9.80;99.90
19906;DHT22;10115;50.906;4.438;2023-03-14T06:02:21;9.80;99.90
19906;DHT22;10115;50.906;4.438;2023-03-14T06:04:47;9.80;99.90
19906;DHT22;10115;50.906;4.438;2023-03-14T06:07:13;9.80;99.90
19906;DHT22;10115;50.906;4.438;2023-03-14T06:09:38;9.80;99.90
19906;DHT22;10115;50.906;4.438;2023-03-14T06:12:05;9.80;99.90
19906;DHT22;10115;50.906;4.438;2023-03-14T06:14:31;9.80;99.90
19906;DHT22;10115;50.906;4.438;2023-03-14T06:16:57;9.80;99.90
19906;DHT22;10115;50.906;4.438;2023-03-14T06:19:25;9.80;99.90
19906;DHT22;10115;50.906;4.438;2023-03-14T06:21:51;9.80;99.90
19906;DHT22;10115;50.906;4.438;2023-03-14T06:24:16;9.80;99.90
19906;DHT22;10115;50.906;4.438;2023-03-14T06:26:42;9.80;99.90
19906;DHT22;10115;50.906;4.438;2023-03-14T06:29:08;9.80;99.90
19906;DHT22;10115;50.906;4.438;2023-03-14T06:31:34;9.80;99.90
19906;DHT22;10115;50.906;4.438;2023-03-14T06:34:00;9.70;99.90
19906;DHT22;10115;50.906;4.438;2023-03-14T06:36:26;9.70;99.90
19906;DHT22;10115;50.906;4.438;2023-03-14T06:38:51;9.70;99.90
19906;DHT22;10115;50.906;4.438;2023-03-14T06:41:17;9.70;99.90
19906;DHT22;10115;50.906;4.438;2023-03-14T06:43:43;9.70;99.90
19906;DHT22;10115;50.906;4.438;2023-03-14T06:46:09;9.70;99.90
19906;DHT22;10115;50.906;4.438;2023-03-14T06:48:34;9.70;99.90
19906;DHT22;10115;50.906;4.438;2023-03-14T06:51:00;9.60;99.90
19906;DHT22;10115;50.906;4.438;2023-03-14T06:53:26;8.90;99.90
19906;DHT22;10115;50.906;4.438;2023-03-14T06:55:52;8.70;99.90
19906;DHT22;10115;50.906;4.438;2023-03-14T06:58:17;8.30;99.90
19906;DHT22;10115;50.906;4.438;2023-03-14T07:00:43;7.90;99.90
19906;DHT22;10115;50.906;4.438;2023-03-14T07:03:10;7.80;99.90
19906;DHT22;10115;50.906;4.438;2023-03-14T07:05:35;7.60;99.90
19906;DHT22;10115;50.906;4.438;2023-03-14T07:08:01;7.60;99.90
19906;DHT22;10115;50.906;4.438;2023-03-14T07:10:27;7.50;99.90
19906;DHT22;10115;50.906;4.438;2023-03-14T07:12:52;7.60;99.90
19906;DHT22;10115;50.906;4.438;2023-03-14T07:15:19;7.40;99.90
19906;DHT22;10115;50.906;4.438;2023-03-14T07:17:45;7.20;99.90
19906;DHT22;10115;50.906;4.438;2023-03-14T07:20:13;7.20;99.90
19906;DHT22;10115;50.906;4.438;2023-03-14T07:22:39;7.10;99.90
19906;DHT22;10115;50.906;4.438;2023-03-14T07:25:05;7.10;99.90
19906;DHT22;10115;50.906;4.438;2023-03-14T07:27:31;7.10;99.90
19906;DHT22;10115;50.906;4.438;2023-03-14T07:29:56;7.10;99.90
19906;DHT22;10115;50.906;4.438;2023-03-14T07:32:22;7.10;99.90
19906;DHT22;10115;50.906;4.438;2023-03-14T07:34:48;7.10;99.90
19906;DHT22;10115;50.906;4.438;2023-03-14T07:37:14;7.10;99.90
19906;DHT22;10115;50.906;4.438;2023-03-14T07:39:39;7.10;99.90
19906;DHT22;10115;50.906;4.438;2023-03-14T07:42:05;7.10;99.90
19906;DHT22;10115;50.906;4.438;2023-03-14T07:44:31;7.10;99.90
19906;DHT22;10115;50.906;4.438;2023-03-14T07:46:56;7.10;99.90
19906;DHT22;10115;50.906;4.438;2023-03-14T07:49:22;7.10;99.90
19906;DHT22;10115;50.906;4.438;2023-03-14T07:51:48;7.10;99.90
19906;DHT22;10115;50.906;4.438;2023-03-14T07:54:14;7.10;99.90
19906;DHT22;10115;50.906;4.438;2023-03-14T07:56:40;7.00;99.90
19906;DHT22;10115;50.906;4.438;2023-03-14T07:59:06;7.10;99.90
19906;DHT22;10115;50.906;4.438;2023-03-14T08:01:31;7.10;99.90
19906;DHT22;10115;50.906;4.438;2023-03-14T08:03:57;7.10;99.90
19906;DHT22;10115;50.906;4.438;2023-03-14T08:06:22;7.10;99.90
19906;DHT22;10115;50.906;4.438;2023-03-14T08:08:48;7.00;99.90
19906;DHT22;10115;50.906;4.438;2023-03-14T08:11:14;6.90;99.90
19906;DHT22;10115;50.906;4.438;2023-03-14T08:13:40;6.90;99.90
19906;DHT22;10115;50.906;4.438;2023-03-14T08:16:05;6.90;99.90
19906;DHT22;10115;50.906;4.438;2023-03-14T08:18:31;6.90;99.90
19906;DHT22;10115;50.906;4.438;2023-03-14T08:20:57;7.00;99.90
19906;DHT22;10115;50.906;4.438;2023-03-14T08:23:23;7.00;99.90
19906;DHT22;10115;50.906;4.438;2023-03-14T08:25:51;7.00;99.90
19906;DHT22;10115;50.906;4.438;2023-03-14T08:28:17;7.00;99.90
19906;DHT22;10115;50.906;4.438;2023-03-14T08:30:43;7.00;99.90
19906;DHT22;10115;50.906;4.438;2023-03-14T08:33:09;7.00;99.90
19906;DHT22;10115;50.906;4.438;2023-03-14T08:35:35;7.10;99.90
19906;DHT22;10115;50.906;4.438;2023-03-14T08:38:02;7.10;99.90
19906;DHT22;10115;50.906;4.438;2023-03-14T08:40:27;7.10;99.90
19906;DHT22;10115;50.906;4.438;2023-03-14T08:42:53;7.00;99.90
19906;DHT22;10115;50.906;4.438;2023-03-14T08:45:19;7.00;99.90
19906;DHT22;10115;50.906;4.438;2023-03-14T08:47:45;6.90;99.90
19906;DHT22;10115;50.906;4.438;2023-03-14T08:50:11;6.80;99.90
19906;DHT22;10115;50.906;4.438;2023-03-14T08:52:37;6.80;99.90
19906;DHT22;10115;50.906;4.438;2023-03-14T08:55:06;6.60;99.90
19906;DHT22;10115;50.906;4.438;2023-03-14T08:57:32;6.60;99.90
19906;DHT22;10115;50.906;4.438;2023-03-14T08:59:58;6.70;99.90
19906;DHT22;10115;50.906;4.438;2023-03-14T09:02:25;6.70;99.90
19906;DHT22;10115;50.906;4.438;2023-03-14T09:04:51;6.80;99.90
19906;DHT22;10115;50.906;4.438;2023-03-14T09:07:17;6.80;99.90
19906;DHT22;10115;50.906;4.438;2023-03-14T09:09:43;6.90;99.90
19906;DHT22;10115;50.906;4.438;2023-03-14T09:12:09;7.00;99.90
19906;DHT22;10115;50.906;4.438;2023-03-14T09:14:34;7.00;99.90
19906;DHT22;10115;50.906;4.438;2023-03-14T09:17:00;7.00;99.90
19906;DHT22;10115;50.906;4.438;2023-03-14T09:19:26;6.90;99.90
19906;DHT22;10115;50.906;4.438;2023-03-14T09:21:51;6.80;99.90
19906;DHT22;10115;50.906;4.438;2023-03-14T09:24:18;6.70;99.90
19906;DHT22;10115;50.906;4.438;2023-03-14T09:26:43;6.60;99.90
19906;DHT22;10115;50.906;4.438;2023-03-14T09:29:09;6.60;99.90
19906;DHT22;10115;50.906;4.438;2023-03-14T09:31:35;6.50;99.90
19906;DHT22;10115;50.906;4.438;2023-03-14T09:34:01;6.50;99.90
19906;DHT22;10115;50.906;4.438;2023-03-14T09:36:27;6.50;99.90
19906;DHT22;10115;50.906;4.438;2023-03-14T09:38:53;6.50;99.90
19906;DHT22;10115;50.906;4.438;2023-03-14T09:41:21;6.50;99.90
19906;DHT22;10115;50.906;4.438;2023-03-14T09:43:50;6.30;99.90
19906;DHT22;10115;50.906;4.438;2023-03-14T09:46:20;6.30;99.90
19906;DHT22;10115;50.906;4.438;2023-03-14T09:48:46;6.30;99.90
19906;DHT22;10115;50.906;4.438;2023-03-14T09:51:18;6.40;99.90
19906;DHT22;10115;50.906;4.438;2023-03-14T09:53:47;6.40;99.90
19906;DHT22;10115;50.906;4.438;2023-03-14T09:56:27;6.50;99.90
19906;DHT22;10115;50.906;4.438;2023-03-14T09:59:00;6.60;99.90
19906;DHT22;10115;50.906;4.438;2023-03-14T10:01:28;6.70;99.90
19906;DHT22;10115;50.906;4.438;2023-03-14T10:03:56;6.70;99.90
19906;DHT22;10115;50.906;4.438;2023-03-14T10:06:27;6.80;99.90
19906;DHT22;10115;50.906;4.438;2023-03-14T10:08:54;6.60;99.90
19906;DHT22;10115;50.906;4.438;2023-03-14T10:11:20;6.70;99.90
19906;DHT22;10115;50.906;4.438;2023-03-14T10:14:02;6.70;99.90
19906;DHT22;10115;50.906;4.438;2023-03-14T10:16:31;6.80;99.90
19906;DHT22;10115;50.906;4.438;2023-03-14T10:19:13;6.70;99.90
19906;DHT22;10115;50.906;4.438;2023-03-14T10:21:50;6.70;99.90
19906;DHT22;10115;50.906;4.438;2023-03-14T10:24:29;6.50;99.90
19906;DHT22;10115;50.906;4.438;2023-03-14T10:26:59;6.40;99.90
19906;DHT22;10115;50.906;4.438;2023-03-14T10:29:28;6.30;99.90
19906;DHT22;10115;50.906;4.438;2023-03-14T10:34:29;6.30;99.90
19906;DHT22;10115;50.906;4.438;2023-03-14T10:39:55;6.10;99.90
19906;DHT22;10115;50.906;4.438;2023-03-14T10:42:27;6.00;99.90
19906;DHT22;10115;50.906;4.438;2023-03-14T10:44:57;5.90;99.90
19906;DHT22;10115;50.906;4.438;2023-03-14T10:47:26;5.90;99.90
19906;DHT22;10115;50.906;4.438;2023-03-14T10:49:54;6.30;99.90
19906;DHT22;10115;50.906;4.438;2023-03-14T10:52:22;6.00;99.90
19906;DHT22;10115;50.906;4.438;2023-03-14T10:55:09;6.10;99.90
19906;DHT22;10115;50.906;4.438;2023-03-14T10:57:39;6.10;99.90
19906;DHT22;10115;50.906;4.438;2023-03-14T11:00:08;5.90;99.90
19906;DHT22;10115;50.906;4.438;2023-03-14T11:03:08;5.90;99.90
19906;DHT22;10115;50.906;4.438;2023-03-14T11:06:02;5.90;99.90
19906;DHT22;10115;50.906;4.438;2023-03-14T11:08:48;5.80;99.90
19906;DHT22;10115;50.906;4.438;2023-03-14T11:11:27;5.80;99.90
19906;DHT22;10115;50.906;4.438;2023-03-14T11:16:34;5.60;99.90
19906;DHT22;10115;50.906;4.438;2023-03-14T11:22:41;5.60;99.90
19906;DHT22;10115;50.906;4.438;2023-03-14T11:27:23;5.60;99.90
19906;DHT22;10115;50.906;4.438;2023-03-14T11:29:55;5.60;99.90
19906;DHT22;10115;50.906;4.438;2023-03-14T11:32:45;5.60;99.90
19906;DHT22;10115;50.906;4.438;2023-03-14T11:40:34;5.40;99.90
19906;DHT22;10115;50.906;4.438;2023-03-14T11:43:10;5.50;99.90
19906;DHT22;10115;50.906;4.438;2023-03-14T11:45:41;5.60;99.90
19906;DHT22;10115;50.906;4.438;2023-03-14T11:50:36;5.60;99.90
19906;DHT22;10115;50.906;4.438;2023-03-14T11:53:11;5.70;99.90
19906;DHT22;10115;50.906;4.438;2023-03-14T11:55:41;5.60;99.90
19906;DHT22;10115;50.906;4.438;2023-03-14T11:58:26;5.70;99.90
19906;DHT22;10115;50.906;4.438;2023-03-14T12:00:54;5.80;99.90
19906;DHT22;10115;50.906;4.438;2023-03-14T12:11:33;5.70;99.90
19906;DHT22;10115;50.906;4.438;2023-03-14T12:14:01;5.70;99.90
19906;DHT22;10115;50.906;4.438;2023-03-14T12:16:38;5.60;99.90
19906;DHT22;10115;50.906;4.438;2023-03-14T12:22:08;5.70;99.90
19906;DHT22;10115;50.906;4.438;2023-03-14T12:24:39;5.70;99.90
19906;DHT22;10115;50.906;4.438;2023-03-14T12:27:13;5.60;99.90
19906;DHT22;10115;50.906;4.438;2023-03-14T12:30:00;5.60;99.90
19906;DHT22;10115;50.906;4.438;2023-03-14T12:32:26;5.70;99.90
19906;DHT22;10115;50.906;4.438;2023-03-14T12:34:52;5.60;99.90
19906;DHT22;10115;50.906;4.438;2023-03-14T12:37:36;5.50;99.90
19906;DHT22;10115;50.906;4.438;2023-03-14T12:50:20;5.40;99.90
19906;DHT22;10115;50.906;4.438;2023-03-14T12:55:38;5.60;99.90
19906;DHT22;10115;50.906;4.438;2023-03-14T12:58:15;5.70;99.90
19906;DHT22;10115;50.906;4.438;2023-03-14T13:00:42;5.70;99.90
19906;DHT22;10115;50.906;4.438;2023-03-14T13:06:01;5.70;99.90
19906;DHT22;10115;50.906;4.438;2023-03-14T13:08:41;5.70;99.90
19906;DHT22;10115;50.906;4.438;2023-03-14T13:11:19;5.60;99.90
19906;DHT22;10115;50.906;4.438;2023-03-14T13:13:51;5.60;99.90
19906;DHT22;10115;50.906;4.438;2023-03-14T13:16:20;5.60;99.90
19906;DHT22;10115;50.906;4.438;2023-03-14T13:18:48;5.50;99.90
19906;DHT22;10115;50.906;4.438;2023-03-14T13:21:21;5.40;99.90
19906;DHT22;10115;50.906;4.438;2023-03-14T13:24:20;5.40;99.90
19906;DHT22;10115;50.906;4.438;2023-03-14T13:26:46;5.30;99.90
19906;DHT22;10115;50.906;4.438;2023-03-14T13:29:23;5.50;99.90
19906;DHT22;10115;50.906;4.438;2023-03-14T13:31:51;5.60;99.90
19906;DHT22;10115;50.906;4.438;2023-03-14T13:34:18;5.50;99.90
19906;DHT22;10115;50.906;4.438;2023-03-14T13:36:44;5.60;99.90
19906;DHT22;10115;50.906;4.438;2023-03-14T13:39:17;5.80;99.90
19906;DHT22;10115;50.906;4.438;2023-03-14T13:41:44;5.90;99.90
19906;DHT22;10115;50.906;4.438;2023-03-14T13:44:34;5.90;99.90
19906;DHT22;10115;50.906;4.438;2023-03-14T13:47:03;6.00;99.90
19906;DHT22;10115;50.906;4.438;2023-03-14T13:49:31;5.90;99.90
19906;DHT22;10115;50.906;4.438;2023-03-14T13:51:59;6.00;99.90
19906;DHT22;10115;50.906;4.438;2023-03-14T13:54:26;6.00;99.90
19906;DHT22;10115;50.906;4.438;2023-03-14T13:57:04;6.00;99.90
19906;DHT22;10115;50.906;4.438;2023-03-14T13:59:32;6.10;99.90
19906;DHT22;10115;50.906;4.438;2023-03-14T14:02:00;6.40;99.90
19906;DHT22;10115;50.906;4.438;2023-03-14T14:04:29;6.50;99.90
19906;DHT22;10115;50.906;4.438;2023-03-14T14:06:59;6.50;99.90
19906;DHT22;10115;50.906;4.438;2023-03-14T14:09:38;6.50;99.90
19906;DHT22;10115;50.906;4.438;2023-03-14T14:12:31;6.50;99.90
19906;DHT22;10115;50.906;4.438;2023-03-14T14:17:39;6.70;99.90
19906;DHT22;10115;50.906;4.438;2023-03-14T14:20:29;6.80;99.90
19906;DHT22;10115;50.906;4.438;2023-03-14T14:22:58;7.00;99.90
19906;DHT22;10115;50.906;4.438;2023-03-14T14:25:24;7.10;99.90
19906;DHT22;10115;50.906;4.438;2023-03-14T14:27:50;7.20;99.90
19906;DHT22;10115;50.906;4.438;2023-03-14T14:32:50;7.10;99.90
19906;DHT22;10115;50.906;4.438;2023-03-14T14:35:26;7.10;99.90
19906;DHT22;10115;50.906;4.438;2023-03-14T14:37:55;6.90;99.90
19906;DHT22;10115;50.906;4.438;2023-03-14T14:40:24;6.90;99.90
19906;DHT22;10115;50.906;4.438;2023-03-14T14:42:50;6.80;99.90
19906;DHT22;10115;50.906;4.438;2023-03-14T14:45:24;6.70;99.90
19906;DHT22;10115;50.906;4.438;2023-03-14T14:50:38;6.30;99.90
19906;DHT22;10115;50.906;4.438;2023-03-14T14:55:54;5.70;99.90
19906;DHT22;10115;50.906;4.438;2023-03-14T14:58:47;5.60;99.90
19906;DHT22;10115;50.906;4.438;2023-03-14T15:01:22;5.50;99.90
19906;DHT22;10115;50.906;4.438;2023-03-14T15:03:53;5.50;99.90
19906;DHT22;10115;50.906;4.438;2023-03-14T15:06:19;5.40;99.90
19906;DHT22;10115;50.906;4.438;2023-03-14T15:08:48;5.60;99.90
19906;DHT22;10115;50.906;4.438;2023-03-14T15:11:19;5.70;99.90
19906;DHT22;10115;50.906;4.438;2023-03-14T15:13:45;5.70;99.90
19906;DHT22;10115;50.906;4.438;2023-03-14T15:16:12;5.70;99.90
19906;DHT22;10115;50.906;4.438;2023-03-14T15:18:39;5.80;99.90
19906;DHT22;10115;50.906;4.438;2023-03-14T15:21:05;5.90;99.90
19906;DHT22;10115;50.906;4.438;2023-03-14T15:23:31;5.90;99.90
19906;DHT22;10115;50.906;4.438;2023-03-14T15:25:56;5.90;99.90
19906;DHT22;10115;50.906;4.438;2023-03-14T15:28:25;6.00;99.90
19906;DHT22;10115;50.906;4.438;2023-03-14T15:30:53;5.90;99.90
19906;DHT22;10115;50.906;4.438;2023-03-14T15:33:19;5.90;99.90
19906;DHT22;10115;50.906;4.438;2023-03-14T15:35:45;6.00;99.90
19906;DHT22;10115;50.906;4.438;2023-03-14T15:38:15;6.10;99.90
19906;DHT22;10115;50.906;4.438;2023-03-14T15:40:41;6.10;99.90
19906;DHT22;10115;50.906;4.438;2023-03-14T15:43:07;6.10;99.90
19906;DHT22;10115;50.906;4.438;2023-03-14T15:45:34;6.10;99.90
19906;DHT22;10115;50.906;4.438;2023-03-14T15:48:00;6.20;99.90
19906;DHT22;10115;50.906;4.438;2023-03-14T15:50:26;6.20;99.90
19906;DHT22;10115;50.906;4.438;2023-03-14T15:52:52;6.20;99.90
19906;DHT22;10115;50.906;4.438;2023-03-14T15:55:17;6.20;99.90
19906;DHT22;10115;50.906;4.438;2023-03-14T15:57:44;6.20;99.90
19906;DHT22;10115;50.906;4.438;2023-03-14T16:00:12;6.20;99.90
19906;DHT22;10115;50.906;4.438;2023-03-14T16:02:39;6.20;99.90
19906;DHT22;10115;50.906;4.438;2023-03-14T16:05:08;6.20;99.90
19906;DHT22;10115;50.906;4.438;2023-03-14T16:07:34;6.20;99.90
19906;DHT22;10115;50.906;4.438;2023-03-14T16:09:59;6.20;99.90
19906;DHT22;10115;50.906;4.438;2023-03-14T16:12:25;6.30;99.90
19906;DHT22;10115;50.906;4.438;2023-03-14T16:14:50;6.30;99.90
19906;DHT22;10115;50.906;4.438;2023-03-14T16:17:16;6.20;99.90
19906;DHT22;10115;50.906;4.438;2023-03-14T16:19:42;6.20;99.90
19906;DHT22;10115;50.906;4.438;2023-03-14T16:22:07;6.20;99.90
19906;DHT22;10115;50.906;4.438;2023-03-14T16:24:33;6.20;99.90
19906;DHT22;10115;50.906;4.438;2023-03-14T16:26:59;6.20;99.90
19906;DHT22;10115;50.906;4.438;2023-03-14T16:29:24;6.20;99.90
19906;DHT22;10115;50.906;4.438;2023-03-14T16:31:50;6.20;99.90
19906;DHT22;10115;50.906;4.438;2023-03-14T16:34:16;6.20;99.90
19906;DHT22;10115;50.906;4.438;2023-03-14T16:36:41;6.20;99.90
19906;DHT22;10115;50.906;4.438;2023-03-14T16:39:07;6.20;99.90
19906;DHT22;10115;50.906;4.438;2023-03-14T16:41:33;6.20;99.90
19906;DHT22;10115;50.906;4.438;2023-03-14T16:44:00;6.20;99.90
19906;DHT22;10115;50.906;4.438;2023-03-14T16:46:27;6.20;99.90
19906;DHT22;10115;50.906;4.438;2023-03-14T16:48:54;6.20;99.90
19906;DHT22;10115;50.906;4.438;2023-03-14T16:51:20;6.20;99.90
19906;DHT22;10115;50.906;4.438;2023-03-14T16:53:46;6.20;99.90
19906;DHT22;10115;50.906;4.438;2023-03-14T16:56:16;6.10;99.90